Time;durP1;ratioP1;P1;durP2;ratioP2;P2;SDS_P1;SDS_P2;PMS_P1;PMS_P2;Temp;Humidity;BMP_temperature;BMP_pressure;BME280_temperature;BME280_humidity;BME280_pressure;Samples;Min_cycle;Max_cycle;Signal;HPM_P1;HPM_P2
2023/02/25 00:02:02;;;;;;;49.85;21.73;;;;;;;;;;10385239;28;20502;-76
2023/02/25 00:07:02;;;;;;;50.03;21.52;;;;;;;;;;10383311;28;20021;-72
2023/02/25 00:12:02;;;;;;;51.67;22.23;;;;;;;;;;10385602;28;20171;-81
2023/02/25 00:17:03;;;;;;;39.55;21.15;;;;;;;;;;10385850;28;20021;-81
2023/02/25 00:22:05;;;;;;;44.25;19.92;;;;;;;;;;10377218;28;20523;-78
2023/02/25 00:27:06;;;;;;;39.25;21.75;;;;;;;;;;10377916;28;20022;-74
2023/02/25 00:32:06;;;;;;;52.47;22.58;;;;;;;;;;10414530;28;20029;-79
2023/02/25 00:37:06;;;;;;;48.33;21.05;;;;;;;;;;10394197;28;20447;-80
2023/02/25 00:42:15;;;;;;;46.05;21.08;;;;;;;;;;10405078;28;20022;-79
2023/02/25 00:47:16;;;;;;;45.50;21.65;;;;;;;;;;10389883;28;20017;-76
2023/02/25 00:52:17;;;;;;;46.30;22.30;;;;;;;;;;10384528;28;20550;-77
2023/02/25 00:57:17;;;;;;;40.13;19.60;;;;;;;;;;10383838;28;20480;-76
2023/02/25 01:02:17;;;;;;;43.58;20.77;;;;;;;;;;10366529;28;20022;-75
2023/02/25 01:07:19;;;;;;;43.58;17.90;;;;;;;;;;10381478;28;20491;-79
2023/02/25 01:12:20;;;;;;;39.83;17.25;;;;;;;;;;10386996;28;20029;-74
2023/02/25 01:17:21;;;;;;;37.58;19.20;;;;;;;;;;10382680;28;20124;-76
2023/02/25 01:22:21;;;;;;;41.78;18.13;;;;;;;;;;10394580;28;20117;-72
2023/02/25 01:27:21;;;;;;;40.92;18.10;;;;;;;;;;10388932;28;20495;-79
2023/02/25 01:32:22;;;;;;;35.20;16.73;;;;;;;;;;10382872;28;20645;-76
2023/02/25 01:37:22;;;;;;;40.75;18.20;;;;;;;;;;10382864;28;20123;-79
2023/02/25 01:42:23;;;;;;;39.65;17.30;;;;;;;;;;10384740;28;20017;-76
2023/02/25 01:47:29;;;;;;;33.92;17.48;;;;;;;;;;10395096;28;20022;-79
2023/02/25 01:52:29;;;;;;;37.00;18.88;;;;;;;;;;10387397;28;20053;-75
2023/02/25 01:57:30;;;;;;;35.08;15.90;;;;;;;;;;10399443;28;20032;-78
2023/02/25 02:02:32;;;;;;;33.80;16.75;;;;;;;;;;10366965;28;20116;-76
2023/02/25 02:07:33;;;;;;;35.72;16.00;;;;;;;;;;10386718;28;20022;-72
2023/02/25 02:12:38;;;;;;;41.78;17.35;;;;;;;;;;10390289;28;20024;-75
2023/02/25 02:17:38;;;;;;;32.97;16.27;;;;;;;;;;10403286;28;20391;-75
2023/02/25 02:22:51;;;;;;;42.28;16.65;;;;;;;;;;10390474;28;20026;-73
2023/02/25 02:28:06;;;;;;;42.40;18.13;;;;;;;;;;10388420;28;20492;-72
2023/02/25 02:33:17;;;;;;;37.78;15.57;;;;;;;;;;10380428;28;20026;-72
2023/02/25 02:38:25;;;;;;;36.50;15.85;;;;;;;;;;10373918;28;20103;-75
2023/02/25 02:43:34;;;;;;;38.35;15.48;;;;;;;;;;10388477;28;20056;-78
2023/02/25 02:48:51;;;;;;;34.45;16.55;;;;;;;;;;10388134;28;20048;-77
2023/02/25 02:53:53;;;;;;;36.38;16.20;;;;;;;;;;10389157;28;20096;-77
2023/02/25 02:58:57;;;;;;;35.70;15.27;;;;;;;;;;10371658;28;20021;-73
2023/02/25 03:04:00;;;;;;;35.35;16.27;;;;;;;;;;10388570;28;20454;-78
2023/02/25 03:09:03;;;;;;;35.33;16.48;;;;;;;;;;10388489;28;20021;-73
2023/02/25 03:14:03;;;;;;;36.90;16.58;;;;;;;;;;10373944;28;20120;-73
2023/02/25 03:19:08;;;;;;;30.47;15.93;;;;;;;;;;10394903;28;20117;-75
2023/02/25 03:24:12;;;;;;;36.70;16.80;;;;;;;;;;10373692;28;20025;-75
2023/02/25 03:29:17;;;;;;;42.67;17.15;;;;;;;;;;10387167;28;20111;-80
2023/02/25 03:34:20;;;;;;;33.70;14.70;;;;;;;;;;10351989;28;20025;-79
2023/02/25 03:39:21;;;;;;;36.50;16.02;;;;;;;;;;10380819;28;20022;-76
2023/02/25 03:44:30;;;;;;;41.63;16.13;;;;;;;;;;10378938;28;20036;-84
2023/02/25 03:49:37;;;;;;;39.17;16.23;;;;;;;;;;10363349;28;20053;-76
2023/02/25 03:54:38;;;;;;;30.27;15.65;;;;;;;;;;10364040;28;20013;-77
2023/02/25 03:59:39;;;;;;;32.28;15.63;;;;;;;;;;10349697;28;20021;-79
2023/02/25 04:04:45;;;;;;;32.28;13.98;;;;;;;;;;10338848;28;20779;-78
2023/02/25 04:09:45;;;;;;;32.15;14.68;;;;;;;;;;10390532;28;20060;-79
2023/02/25 04:14:46;;;;;;;31.42;14.73;;;;;;;;;;10343508;28;20112;-79
2023/02/25 04:19:49;;;;;;;33.75;16.08;;;;;;;;;;10353362;28;20021;-74
2023/02/25 04:24:49;;;;;;;34.92;16.52;;;;;;;;;;10359282;28;20041;-77
2023/02/25 04:29:50;;;;;;;43.87;18.00;;;;;;;;;;10343925;28;20021;-70
2023/02/25 04:35:01;;;;;;;39.80;17.33;;;;;;;;;;10367902;28;20025;-77
2023/02/25 04:40:03;;;;;;;37.53;16.00;;;;;;;;;;10372037;28;20034;-74
2023/02/25 04:45:06;;;;;;;29.58;15.60;;;;;;;;;;10371668;28;20029;-72
2023/02/25 04:50:08;;;;;;;35.15;15.52;;;;;;;;;;10377554;28;20050;-78
2023/02/25 04:55:09;;;;;;;42.75;16.52;;;;;;;;;;10345877;28;20112;-78
2023/02/25 05:00:34;;;;;;;35.08;16.35;;;;;;;;;;10352583;28;20021;-83
2023/02/25 05:05:35;;;;;;;34.33;14.68;;;;;;;;;;10371012;28;20029;-80
2023/02/25 05:10:36;;;;;;;43.45;16.50;;;;;;;;;;10428541;28;20033;-73
2023/02/25 05:15:36;;;;;;;37.75;16.85;;;;;;;;;;10371247;28;20183;-77
2023/02/25 05:20:40;;;;;;;40.13;16.10;;;;;;;;;;10372952;28;20024;-73
2023/02/25 05:25:41;;;;;;;40.00;15.50;;;;;;;;;;10369970;28;20014;-75
2023/02/25 05:30:42;;;;;;;37.30;15.05;;;;;;;;;;10414562;28;20024;-76
2023/02/25 05:35:42;;;;;;;48.67;17.57;;;;;;;;;;10421405;28;20026;-78
2023/02/25 05:40:42;;;;;;;38.75;17.13;;;;;;;;;;10387050;28;20039;-74
2023/02/25 05:45:42;;;;;;;41.08;17.35;;;;;;;;;;10386266;28;20021;-79
2023/02/25 05:50:43;;;;;;;44.80;17.90;;;;;;;;;;10378901;28;20132;-77
2023/02/25 05:55:46;;;;;;;36.23;17.53;;;;;;;;;;10414258;28;20021;-79
2023/02/25 06:00:46;;;;;;;42.50;18.65;;;;;;;;;;10379896;28;20522;-81
2023/02/25 06:05:47;;;;;;;49.70;19.20;;;;;;;;;;10400991;28;20028;-72
2023/02/25 06:10:47;;;;;;;42.67;18.33;;;;;;;;;;10379872;28;20021;-78
2023/02/25 06:15:47;;;;;;;39.78;18.15;;;;;;;;;;10384286;28;20589;-77
2023/02/25 06:20:48;;;;;;;37.77;18.33;;;;;;;;;;10341225;28;20533;-78
2023/02/25 06:25:50;;;;;;;43.93;18.93;;;;;;;;;;10380266;28;20029;-79
2023/02/25 06:30:54;;;;;;;56.83;19.13;;;;;;;;;;10422105;28;20503;-71
2023/02/25 06:35:54;;;;;;;47.97;18.38;;;;;;;;;;10383966;28;20175;-80
2023/02/25 06:40:57;;;;;;;38.13;17.73;;;;;;;;;;10384102;28;20555;-72
2023/02/25 06:45:57;;;;;;;44.25;15.70;;;;;;;;;;10387689;28;20314;-80
2023/02/25 06:50:57;;;;;;;37.25;16.23;;;;;;;;;;10405609;28;20132;-77
2023/02/25 06:56:01;;;;;;;37.60;15.43;;;;;;;;;;10376922;28;20025;-78
2023/02/25 07:01:06;;;;;;;37.25;16.80;;;;;;;;;;10400924;28;20021;-79
2023/02/25 07:06:14;;;;;;;33.65;15.20;;;;;;;;;;10404904;28;20013;-73
2023/02/25 07:11:17;;;;;;;36.75;13.70;;;;;;;;;;10396742;28;20025;-79
2023/02/25 07:16:36;;;;;;;36.95;15.32;;;;;;;;;;10379121;28;20511;-75
2023/02/25 07:21:37;;;;;;;28.85;12.00;;;;;;;;;;10391626;28;20022;-71
2023/02/25 07:26:40;;;;;;;37.63;15.07;;;;;;;;;;10389521;28;20085;-70
2023/02/25 07:31:43;;;;;;;33.15;13.85;;;;;;;;;;10403955;28;20028;-78
2023/02/25 07:36:44;;;;;;;35.33;13.35;;;;;;;;;;10427370;28;20016;-75
2023/02/25 07:41:49;;;;;;;32.83;12.20;;;;;;;;;;10413317;28;20029;-70
2023/02/25 07:46:53;;;;;;;36.72;13.27;;;;;;;;;;10419421;28;20431;-74
2023/02/25 07:51:59;;;;;;;34.22;12.85;;;;;;;;;;10420554;28;20080;-71
2023/02/25 07:57:01;;;;;;;34.38;13.60;;;;;;;;;;10414559;28;20119;-73
2023/02/25 08:02:03;;;;;;;41.42;11.93;;;;;;;;;;10450439;28;20052;-72
2023/02/25 08:07:04;;;;;;;34.80;11.80;;;;;;;;;;10400237;28;20045;-70
2023/02/25 08:12:05;;;;;;;43.63;11.80;;;;;;;;;;10430798;28;20041;-71
2023/02/25 08:17:06;;;;;;;35.38;13.65;;;;;;;;;;10384091;28;20061;-73
2023/02/25 08:22:10;;;;;;;40.38;12.00;;;;;;;;;;10399251;28;20025;-78
2023/02/25 08:27:10;;;;;;;26.65;11.93;;;;;;;;;;10375992;28;20025;-78
2023/02/25 08:32:11;;;;;;;35.42;12.52;;;;;;;;;;10414171;28;20032;-71
2023/02/25 08:37:13;;;;;;;38.05;11.90;;;;;;;;;;10438513;28;20026;-73
2023/02/25 08:42:17;;;;;;;40.63;12.43;;;;;;;;;;10394197;28;20522;-78
2023/02/25 08:47:20;;;;;;;60.85;12.85;;;;;;;;;;10395948;28;20032;-81
2023/02/25 08:52:22;;;;;;;50.33;12.85;;;;;;;;;;10409686;28;20140;-78
2023/02/25 08:57:25;;;;;;;35.13;12.95;;;;;;;;;;10399358;28;20032;-80
2023/02/25 09:02:25;;;;;;;36.38;12.52;;;;;;;;;;10391358;28;20384;-73
2023/02/25 09:07:25;;;;;;;30.73;12.57;;;;;;;;;;10387649;28;20026;-78
2023/02/25 09:12:26;;;;;;;42.30;12.38;;;;;;;;;;10382882;28;20515;-80
2023/02/25 09:17:26;;;;;;;37.60;12.23;;;;;;;;;;10400284;28;20392;-74
2023/02/25 09:22:32;;;;;;;40.67;13.23;;;;;;;;;;10381104;28;20222;-79
2023/02/25 09:27:33;;;;;;;44.08;15.18;;;;;;;;;;10413238;28;20033;-79
2023/02/25 09:32:34;;;;;;;43.83;15.88;;;;;;;;;;10417786;28;20519;-75
2023/02/25 09:38:02;;;;;;;39.92;16.65;;;;;;;;;;10397659;28;20033;-76
2023/02/25 09:43:33;;;;;;;48.65;16.90;;;;;;;;;;10405738;28;20040;-74
2023/02/25 09:48:36;;;;;;;41.05;16.65;;;;;;;;;;10383215;28;20085;-78
2023/02/25 09:53:49;;;;;;;51.00;19.13;;;;;;;;;;10409643;28;20021;-79
2023/02/25 09:59:14;;;;;;;56.28;17.27;;;;;;;;;;10397080;28;20091;-79
2023/02/25 10:04:15;;;;;;;42.97;16.17;;;;;;;;;;10402701;28;20475;-79
2023/02/25 10:09:44;;;;;;;51.45;16.60;;;;;;;;;;10434301;28;20631;-81
2023/02/25 10:14:47;;;;;;;47.63;14.73;;;;;;;;;;10418424;28;20021;-74
2023/02/25 10:19:56;;;;;;;40.10;15.30;;;;;;;;;;10400107;28;20025;-81
2023/02/25 10:25:03;;;;;;;55.10;16.95;;;;;;;;;;10410285;28;20032;-73
2023/02/25 10:30:06;;;;;;;30.75;13.88;;;;;;;;;;10439171;28;20411;-76
2023/02/25 10:35:35;;;;;;;48.03;14.77;;;;;;;;;;10402334;28;20037;-77
2023/02/25 10:40:38;;;;;;;35.50;12.23;;;;;;;;;;10419859;28;20093;-70
2023/02/25 10:45:44;;;;;;;57.65;12.52;;;;;;;;;;10418090;28;20021;-70
2023/02/25 10:50:59;;;;;;;40.50;11.98;;;;;;;;;;10424142;28;20118;-81
2023/02/25 10:56:03;;;;;;;35.67;11.70;;;;;;;;;;10390678;28;20026;-79
2023/02/25 11:01:12;;;;;;;32.17;11.65;;;;;;;;;;10410848;28;20029;-79
2023/02/25 11:06:23;;;;;;;34.08;12.27;;;;;;;;;;10423284;28;20618;-75
2023/02/25 11:11:51;;;;;;;44.45;13.02;;;;;;;;;;10411188;28;20049;-78
2023/02/25 11:16:59;;;;;;;30.02;10.93;;;;;;;;;;10403443;28;20032;-80
2023/02/25 11:22:17;;;;;;;43.70;12.95;;;;;;;;;;10413283;28;20033;-86
2023/02/25 11:27:24;;;;;;;35.53;9.83;;;;;;;;;;10409559;28;20030;-81
2023/02/25 11:32:24;;;;;;;40.28;10.73;;;;;;;;;;10420678;28;20444;-77
2023/02/25 11:37:42;;;;;;;35.83;10.67;;;;;;;;;;10417012;28;20033;-78
2023/02/25 11:42:43;;;;;;;42.75;10.20;;;;;;;;;;10385033;28;20084;-78
2023/02/25 11:47:44;;;;;;;33.85;8.98;;;;;;;;;;10400590;28;20025;-73
2023/02/25 11:53:04;;;;;;;36.70;8.77;;;;;;;;;;10398057;28;20542;-79
2023/02/25 11:58:23;;;;;;;36.22;9.10;;;;;;;;;;10375119;28;20420;-75
2023/02/25 12:03:39;;;;;;;40.97;9.00;;;;;;;;;;10376564;28;20034;-81
2023/02/25 12:08:45;;;;;;;40.35;8.68;;;;;;;;;;10385101;28;20578;-83
2023/02/25 12:14:01;;;;;;;38.10;8.57;;;;;;;;;;10371328;28;20048;-79
2023/02/25 12:19:15;;;;;;;39.85;7.68;;;;;;;;;;10370470;28;20172;-77
2023/02/25 12:24:26;;;;;;;43.53;10.00;;;;;;;;;;10381009;28;20034;-79
2023/02/25 12:29:38;;;;;;;30.25;8.25;;;;;;;;;;10356792;28;20075;-76
2023/02/25 12:34:50;;;;;;;33.28;9.02;;;;;;;;;;10363611;28;20088;-76
2023/02/25 12:39:53;;;;;;;28.63;7.32;;;;;;;;;;10354886;28;20486;-75
2023/02/25 12:45:20;;;;;;;32.28;8.50;;;;;;;;;;10378772;28;20151;-81
2023/02/25 12:50:32;;;;;;;28.83;5.25;;;;;;;;;;10338586;28;20081;-80
2023/02/25 12:55:51;;;;;;;20.85;4.60;;;;;;;;;;10386709;28;20038;-78
2023/02/25 13:01:10;;;;;;;19.17;6.18;;;;;;;;;;10371358;28;20025;-77
2023/02/25 13:06:14;;;;;;;24.45;5.18;;;;;;;;;;10368766;28;20116;-79
2023/02/25 13:11:22;;;;;;;27.83;7.38;;;;;;;;;;10389149;28;20033;-74
2023/02/25 13:16:37;;;;;;;35.88;5.13;;;;;;;;;;10378444;28;20028;-75
2023/02/25 13:21:40;;;;;;;25.52;6.78;;;;;;;;;;10372597;28;20026;-76
2023/02/25 13:26:53;;;;;;;19.23;4.35;;;;;;;;;;10385321;28;20025;-77
2023/02/25 13:32:08;;;;;;;29.85;4.78;;;;;;;;;;10378420;28;20053;-77
2023/02/25 13:37:27;;;;;;;21.67;4.25;;;;;;;;;;10372649;28;20029;-72
2023/02/25 13:42:47;;;;;;;22.60;4.07;;;;;;;;;;10362472;28;20030;-79
2023/02/25 13:48:07;;;;;;;22.25;4.70;;;;;;;;;;10333032;28;20033;-73
2023/02/25 13:53:12;;;;;;;17.17;5.38;;;;;;;;;;10382484;28;20062;-78
2023/02/25 13:58:15;;;;;;;24.77;5.35;;;;;;;;;;10377319;28;20037;-80
2023/02/25 14:03:21;;;;;;;23.50;4.60;;;;;;;;;;10389806;28;20013;-77
2023/02/25 14:08:40;;;;;;;22.63;4.43;;;;;;;;;;10366831;28;20029;-80
2023/02/25 14:14:00;;;;;;;26.58;3.78;;;;;;;;;;10386474;28;20037;-76
2023/02/25 14:19:04;;;;;;;19.00;6.55;;;;;;;;;;10350653;28;20467;-74
2023/02/25 14:24:10;;;;;;;25.90;5.07;;;;;;;;;;10369035;28;20133;-80
2023/02/25 14:29:10;;;;;;;26.10;5.47;;;;;;;;;;10373621;28;20093;-75
2023/02/25 14:34:17;;;;;;;41.05;5.05;;;;;;;;;;10374830;28;20507;-78
2023/02/25 14:39:30;;;;;;;18.20;5.15;;;;;;;;;;10357055;28;20029;-75
2023/02/25 14:44:37;;;;;;;28.15;5.63;;;;;;;;;;10372355;28;20021;-80
2023/02/25 14:49:46;;;;;;;28.15;5.70;;;;;;;;;;10368309;28;20099;-81
2023/02/25 14:54:52;;;;;;;18.67;5.55;;;;;;;;;;10392670;23;20145;-73
2023/02/25 15:00:03;;;;;;;17.13;4.25;;;;;;;;;;10384893;28;20041;-74
2023/02/25 15:05:09;;;;;;;28.00;7.13;;;;;;;;;;10397803;22;20053;-81
2023/02/25 15:10:29;;;;;;;23.27;6.18;;;;;;;;;;10387399;28;20048;-77
2023/02/25 15:15:36;;;;;;;23.42;5.47;;;;;;;;;;10370406;28;20056;-75
2023/02/25 15:20:44;;;;;;;21.88;5.53;;;;;;;;;;10377605;28;20087;-79
2023/02/25 15:25:45;;;;;;;22.05;4.72;;;;;;;;;;10406296;28;20045;-75
2023/02/25 15:31:01;;;;;;;25.08;5.38;;;;;;;;;;10386671;28;20496;-75
2023/02/25 15:36:22;;;;;;;16.77;5.05;;;;;;;;;;10393790;28;20025;-79
2023/02/25 15:41:44;;;;;;;18.52;5.05;;;;;;;;;;10370170;28;20042;-79
2023/02/25 15:46:48;;;;;;;28.63;6.55;;;;;;;;;;10415172;28;20052;-80
2023/02/25 15:51:50;;;;;;;24.33;6.13;;;;;;;;;;10375685;28;20042;-75
2023/02/25 15:56:51;;;;;;;23.88;5.18;;;;;;;;;;10372827;28;20021;-75
2023/02/25 16:01:51;;;;;;;28.35;6.30;;;;;;;;;;10398014;28;20078;-78
2023/02/25 16:06:52;;;;;;;32.47;6.17;;;;;;;;;;10402257;28;20062;-73
2023/02/25 16:11:52;;;;;;;18.63;6.67;;;;;;;;;;10380889;28;20028;-75
2023/02/25 16:17:05;;;;;;;25.77;5.60;;;;;;;;;;10383425;28;20025;-73
2023/02/25 16:22:14;;;;;;;18.50;5.95;;;;;;;;;;10376191;28;20029;-76
2023/02/25 16:27:22;;;;;;;28.70;6.90;;;;;;;;;;10378705;28;20490;-74
2023/02/25 16:32:31;;;;;;;25.10;5.40;;;;;;;;;;10392317;28;20037;-80
2023/02/25 16:37:49;;;;;;;20.30;6.65;;;;;;;;;;10406373;28;20022;-75
2023/02/25 16:42:51;;;;;;;;;;;;;;;;;;10385583;28;20033;-79
2023/02/25 16:48:07;;;;;;;21.10;5.63;;;;;;;;;;10580149;27;20427;-75
2023/02/25 16:53:14;;;;;;;18.70;5.85;;;;;;;;;;10524671;28;20052;-81
2023/02/25 16:58:24;;;;;;;18.52;5.95;;;;;;;;;;10506583;28;20020;-77
2023/02/25 17:03:26;;;;;;;19.15;6.53;;;;;;;;;;10556639;28;20575;-78
2023/02/25 17:08:38;;;;;;;25.40;6.55;;;;;;;;;;10533058;28;20468;-78
2023/02/25 17:13:40;;;;;;;20.25;5.75;;;;;;;;;;10516378;28;20024;-75
2023/02/25 17:18:49;;;;;;;26.25;6.50;;;;;;;;;;10522984;28;20020;-81
2023/02/25 17:23:50;;;;;;;27.75;6.35;;;;;;;;;;10523650;28;20036;-76
2023/02/25 17:28:52;;;;;;;21.05;4.90;;;;;;;;;;10532646;28;20024;-83
2023/02/25 17:33:57;;;;;;;33.33;6.40;;;;;;;;;;10516999;28;20031;-71
2023/02/25 17:38:59;;;;;;;21.33;5.65;;;;;;;;;;10516818;28;20028;-79
2023/02/25 17:44:14;;;;;;;26.13;6.97;;;;;;;;;;10520095;28;20048;-79
2023/02/25 17:49:35;;;;;;;21.70;5.80;;;;;;;;;;10522835;28;20499;-80
2023/02/25 17:54:36;;;;;;;25.92;5.80;;;;;;;;;;10518150;28;20099;-85
2023/02/25 17:59:38;;;;;;;26.98;8.63;;;;;;;;;;10490495;28;20081;-74
2023/02/25 18:04:40;;;;;;;21.08;5.35;;;;;;;;;;10483533;28;20021;-80
2023/02/25 18:09:40;;;;;;;15.95;6.95;;;;;;;;;;10483253;28;20024;-79
2023/02/25 18:14:46;;;;;;;25.37;6.83;;;;;;;;;;10486464;28;20020;-80
2023/02/25 18:19:47;;;;;;;24.70;6.50;;;;;;;;;;10479949;28;20064;-78
2023/02/25 18:24:53;;;;;;;26.10;8.67;;;;;;;;;;10495857;28;20096;-78
2023/02/25 18:30:20;;;;;;;22.90;6.00;;;;;;;;;;10496983;28;20013;-76
2023/02/25 18:35:26;;;;;;;28.50;5.20;;;;;;;;;;10503969;28;20044;-77
2023/02/25 18:40:35;;;;;;;27.60;6.53;;;;;;;;;;10495265;28;20043;-74
2023/02/25 18:45:35;;;;;;;19.98;5.15;;;;;;;;;;10494914;28;20075;-76
2023/02/25 18:50:36;;;;;;;24.93;7.30;;;;;;;;;;10467935;28;20548;-80
2023/02/25 18:55:37;;;;;;;11.65;5.55;;;;;;;;;;10482782;28;20102;-77
2023/02/25 19:00:38;;;;;;;17.67;6.25;;;;;;;;;;10484909;28;20085;-79
2023/02/25 19:05:39;;;;;;;21.45;5.78;;;;;;;;;;10478499;28;20024;-80
2023/02/25 19:10:39;;;;;;;25.83;5.65;;;;;;;;;;10481899;28;20020;-79
2023/02/25 19:15:39;;;;;;;14.98;5.95;;;;;;;;;;10496998;28;20046;-74
2023/02/25 19:20:41;;;;;;;21.87;7.23;;;;;;;;;;10485680;28;20551;-80
2023/02/25 19:25:42;;;;;;;26.42;8.50;;;;;;;;;;10476124;28;20028;-73
2023/02/25 19:30:43;;;;;;;28.27;7.05;;;;;;;;;;10492121;28;20059;-78
2023/02/25 19:35:47;;;;;;;21.45;6.35;;;;;;;;;;10481775;28;20475;-81
2023/02/25 19:40:50;;;;;;;25.08;6.13;;;;;;;;;;10481219;28;20086;-78
2023/02/25 19:46:16;;;;;;;28.90;6.07;;;;;;;;;;10495204;28;20048;-74
2023/02/25 19:51:17;;;;;;;27.83;6.65;;;;;;;;;;10501849;28;20044;-75
2023/02/25 19:56:17;;;;;;;16.80;6.63;;;;;;;;;;10478339;28;20233;-76
2023/02/25 20:01:17;;;;;;;28.52;7.88;;;;;;;;;;10482757;28;20090;-76
2023/02/25 20:06:19;;;;;;;24.20;5.85;;;;;;;;;;10488707;28;20126;-74
2023/02/25 20:11:19;;;;;;;23.35;5.32;;;;;;;;;;10488333;28;20025;-73
2023/02/25 20:16:22;;;;;;;21.58;5.07;;;;;;;;;;10484635;28;20042;-77
2023/02/25 20:21:23;;;;;;;21.00;6.03;;;;;;;;;;10480412;28;20036;-76
2023/02/25 20:26:24;;;;;;;17.40;5.47;;;;;;;;;;10474571;28;20745;-75
2023/02/25 20:31:28;;;;;;;16.63;6.57;;;;;;;;;;10497420;28;20123;-81
2023/02/25 20:36:54;;;;;;;18.48;6.05;;;;;;;;;;10474391;28;20033;-80
2023/02/25 20:41:55;;;;;;;27.17;6.93;;;;;;;;;;10487976;28;20032;-75
2023/02/25 20:46:55;;;;;;;17.55;6.85;;;;;;;;;;10497395;28;20040;-76
2023/02/25 20:51:56;;;;;;;19.73;6.10;;;;;;;;;;10495283;28;20017;-74
2023/02/25 20:56:56;;;;;;;25.25;5.65;;;;;;;;;;10503975;28;20028;-70
2023/02/25 21:01:59;;;;;;;22.42;5.85;;;;;;;;;;10505809;28;20075;-79
2023/02/25 21:06:59;;;;;;;14.15;5.10;;;;;;;;;;10524919;28;20021;-69
2023/02/25 21:11:59;;;;;;;20.87;5.00;;;;;;;;;;10490191;28;20013;-71
2023/02/25 21:17:01;;;;;;;18.42;6.60;;;;;;;;;;10490135;28;20013;-80
2023/02/25 21:22:02;;;;;;;18.48;5.43;;;;;;;;;;10469969;28;20025;-79
2023/02/25 21:27:02;;;;;;;23.88;7.75;;;;;;;;;;10472685;28;20042;-81
2023/02/25 21:32:02;;;;;;;16.75;5.28;;;;;;;;;;10484459;28;20385;-77
2023/02/25 21:37:03;;;;;;;17.37;5.53;;;;;;;;;;10489847;28;20028;-78
2023/02/25 21:42:03;;;;;;;18.33;6.97;;;;;;;;;;10488547;28;20048;-76
2023/02/25 21:47:03;;;;;;;24.67;6.10;;;;;;;;;;10489425;28;20393;-76
2023/02/25 21:52:04;;;;;;;31.00;6.15;;;;;;;;;;10489087;28;20040;-77
2023/02/25 21:57:05;;;;;;;20.67;4.53;;;;;;;;;;10533310;28;20068;-75
2023/02/25 22:02:05;;;;;;;14.32;6.05;;;;;;;;;;10506182;28;20459;-80
2023/02/25 22:07:07;;;;;;;20.92;5.35;;;;;;;;;;10492124;28;20025;-76
2023/02/25 22:12:08;;;;;;;19.95;5.07;;;;;;;;;;10491089;28;20020;-75
2023/02/25 22:17:09;;;;;;;16.75;5.13;;;;;;;;;;10471934;28;20159;-78
2023/02/25 22:22:10;;;;;;;14.90;4.85;;;;;;;;;;10489079;28;20032;-78
2023/02/25 22:27:11;;;;;;;19.88;4.88;;;;;;;;;;10487644;28;20544;-75
2023/02/25 22:32:11;;;;;;;16.15;5.50;;;;;;;;;;10486139;28;20475;-76
2023/02/25 22:37:11;;;;;;;18.15;4.05;;;;;;;;;;10486290;28;20028;-79
2023/02/25 22:42:12;;;;;;;16.40;3.58;;;;;;;;;;10489158;28;20425;-81
2023/02/25 22:47:13;;;;;;;16.52;4.88;;;;;;;;;;10490569;28;20059;-78
2023/02/25 22:52:13;;;;;;;16.88;4.13;;;;;;;;;;10459495;28;20027;-75
2023/02/25 22:57:16;;;;;;;19.17;6.28;;;;;;;;;;10487799;28;20460;-80
2023/02/25 23:02:17;;;;;;;24.50;5.22;;;;;;;;;;10485795;28;20032;-74
2023/02/25 23:07:17;;;;;;;22.27;6.05;;;;;;;;;;10502964;28;20048;-77
2023/02/25 23:12:18;;;;;;;20.33;5.35;;;;;;;;;;10488784;28;20622;-75
2023/02/25 23:17:18;;;;;;;18.50;4.60;;;;;;;;;;10485373;28;20105;-79
2023/02/25 23:22:24;;;;;;;17.23;4.47;;;;;;;;;;10483417;28;20387;-79
2023/02/25 23:27:24;;;;;;;24.15;5.93;;;;;;;;;;10493179;28;20036;-75
2023/02/25 23:32:25;;;;;;;12.98;5.20;;;;;;;;;;10473058;28;20028;-75
2023/02/25 23:37:29;;;;;;;18.30;5.35;;;;;;;;;;10500679;28;20137;-76
2023/02/25 23:42:32;;;;;;;16.92;5.25;;;;;;;;;;10491364;28;20028;-82
2023/02/25 23:47:33;;;;;;;20.08;5.38;;;;;;;;;;10487225;28;20561;-77
2023/02/25 23:52:36;;;;;;;19.08;6.57;;;;;;;;;;10486840;28;20085;-81
2023/02/25 23:57:37;;;;;;;15.07;4.60;;;;;;;;;;10527083;28;20044;-73
